sensor_id;sensor_type;location;lat;lon;timestamp;P1;durP1;ratioP1;P2;durP2;ratioP2
3207;SDS011;1616;52.394;9.756;2023-06-14T00:02:09;3.10;;;1.70;;
3207;SDS011;1616;52.394;9.756;2023-06-14T00:04:34;1.60;;;1.50;;
3207;SDS011;1616;52.394;9.756;2023-06-14T00:07:01;7.40;;;1.60;;
3207;SDS011;1616;52.394;9.756;2023-06-14T00:09:27;3.17;;;1.70;;
3207;SDS011;1616;52.394;9.756;2023-06-14T00:11:52;2.50;;;1.67;;
3207;SDS011;1616;52.394;9.756;2023-06-14T00:14:18;2.30;;;1.90;;
3207;SDS011;1616;52.394;9.756;2023-06-14T00:16:44;3.77;;;2.47;;
3207;SDS011;1616;52.394;9.756;2023-06-14T00:19:10;2.13;;;1.67;;
3207;SDS011;1616;52.394;9.756;2023-06-14T00:21:36;2.50;;;1.87;;
3207;SDS011;1616;52.394;9.756;2023-06-14T00:24:03;13.77;;;2.00;;
3207;SDS011;1616;52.394;9.756;2023-06-14T00:26:29;2.00;;;1.70;;
3207;SDS011;1616;52.394;9.756;2023-06-14T00:28:55;1.60;;;1.50;;
3207;SDS011;1616;52.394;9.756;2023-06-14T00:31:22;2.33;;;2.13;;
3207;SDS011;1616;52.394;9.756;2023-06-14T00:33:48;2.47;;;1.90;;
3207;SDS011;1616;52.394;9.756;2023-06-14T00:36:14;3.50;;;1.60;;
3207;SDS011;1616;52.394;9.756;2023-06-14T00:38:40;1.70;;;1.60;;
3207;SDS011;1616;52.394;9.756;2023-06-14T00:41:05;2.03;;;1.93;;
3207;SDS011;1616;52.394;9.756;2023-06-14T00:43:31;2.43;;;1.90;;
3207;SDS011;1616;52.394;9.756;2023-06-14T00:45:59;1.97;;;1.77;;
3207;SDS011;1616;52.394;9.756;2023-06-14T00:48:25;1.73;;;1.63;;
3207;SDS011;1616;52.394;9.756;2023-06-14T00:50:51;2.27;;;2.00;;
3207;SDS011;1616;52.394;9.756;2023-06-14T00:53:18;3.30;;;1.70;;
3207;SDS011;1616;52.394;9.756;2023-06-14T00:55:45;1.83;;;1.73;;
3207;SDS011;1616;52.394;9.756;2023-06-14T00:58:12;2.07;;;1.80;;
3207;SDS011;1616;52.394;9.756;2023-06-14T01:00:39;3.03;;;2.10;;
3207;SDS011;1616;52.394;9.756;2023-06-14T01:03:04;6.83;;;1.60;;
3207;SDS011;1616;52.394;9.756;2023-06-14T01:05:30;4.57;;;1.93;;
3207;SDS011;1616;52.394;9.756;2023-06-14T01:15:59;1.60;;;1.50;;
3207;SDS011;1616;52.394;9.756;2023-06-14T01:18:27;1.97;;;1.83;;
3207;SDS011;1616;52.394;9.756;2023-06-14T01:20:54;8.90;;;1.80;;
3207;SDS011;1616;52.394;9.756;2023-06-14T01:23:22;1.53;;;1.43;;
3207;SDS011;1616;52.394;9.756;2023-06-14T01:25:48;3.10;;;1.80;;
3207;SDS011;1616;52.394;9.756;2023-06-14T01:28:18;2.10;;;1.57;;
3207;SDS011;1616;52.394;9.756;2023-06-14T01:30:46;1.87;;;1.77;;
3207;SDS011;1616;52.394;9.756;2023-06-14T01:33:21;5.40;;;1.90;;
3207;SDS011;1616;52.394;9.756;2023-06-14T01:35:51;1.83;;;1.63;;
3207;SDS011;1616;52.394;9.756;2023-06-14T01:38:19;2.70;;;2.17;;
3207;SDS011;1616;52.394;9.756;2023-06-14T01:40:47;4.80;;;1.50;;
3207;SDS011;1616;52.394;9.756;2023-06-14T01:43:15;3.13;;;1.60;;
3207;SDS011;1616;52.394;9.756;2023-06-14T01:45:42;2.43;;;1.60;;
3207;SDS011;1616;52.394;9.756;2023-06-14T01:48:09;2.80;;;1.60;;
3207;SDS011;1616;52.394;9.756;2023-06-14T01:50:35;1.60;;;1.50;;
3207;SDS011;1616;52.394;9.756;2023-06-14T01:53:00;4.03;;;1.60;;
3207;SDS011;1616;52.394;9.756;2023-06-14T01:55:26;2.00;;;1.80;;
3207;SDS011;1616;52.394;9.756;2023-06-14T01:57:52;2.70;;;1.40;;
3207;SDS011;1616;52.394;9.756;2023-06-14T02:00:18;1.40;;;1.30;;
3207;SDS011;1616;52.394;9.756;2023-06-14T02:02:44;1.87;;;1.37;;
3207;SDS011;1616;52.394;9.756;2023-06-14T02:05:11;1.80;;;1.70;;
3207;SDS011;1616;52.394;9.756;2023-06-14T02:07:37;2.97;;;1.50;;
3207;SDS011;1616;52.394;9.756;2023-06-14T02:10:03;1.70;;;1.60;;
3207;SDS011;1616;52.394;9.756;2023-06-14T02:12:29;1.97;;;1.87;;
3207;SDS011;1616;52.394;9.756;2023-06-14T02:14:55;2.47;;;1.70;;
3207;SDS011;1616;52.394;9.756;2023-06-14T02:17:21;2.20;;;1.50;;
3207;SDS011;1616;52.394;9.756;2023-06-14T02:19:48;2.17;;;1.50;;
3207;SDS011;1616;52.394;9.756;2023-06-14T02:22:14;3.20;;;1.70;;
3207;SDS011;1616;52.394;9.756;2023-06-14T02:24:41;3.30;;;2.13;;
3207;SDS011;1616;52.394;9.756;2023-06-14T02:27:07;3.23;;;1.83;;
3207;SDS011;1616;52.394;9.756;2023-06-14T02:29:35;2.07;;;1.30;;
3207;SDS011;1616;52.394;9.756;2023-06-14T02:32:01;4.13;;;1.60;;
3207;SDS011;1616;52.394;9.756;2023-06-14T02:34:27;1.47;;;1.37;;
3207;SDS011;1616;52.394;9.756;2023-06-14T02:36:53;3.20;;;1.50;;
3207;SDS011;1616;52.394;9.756;2023-06-14T02:39:21;2.33;;;1.57;;
3207;SDS011;1616;52.394;9.756;2023-06-14T02:41:48;1.50;;;1.40;;
3207;SDS011;1616;52.394;9.756;2023-06-14T02:44:17;2.80;;;1.60;;
3207;SDS011;1616;52.394;9.756;2023-06-14T02:46:43;6.20;;;1.47;;
3207;SDS011;1616;52.394;9.756;2023-06-14T02:49:09;1.60;;;1.50;;
3207;SDS011;1616;52.394;9.756;2023-06-14T02:51:36;3.83;;;1.70;;
3207;SDS011;1616;52.394;9.756;2023-06-14T02:54:02;9.13;;;1.50;;
3207;SDS011;1616;52.394;9.756;2023-06-14T02:56:28;3.80;;;1.70;;
3207;SDS011;1616;52.394;9.756;2023-06-14T02:58:54;1.60;;;1.30;;
3207;SDS011;1616;52.394;9.756;2023-06-14T03:01:20;1.83;;;1.73;;
3207;SDS011;1616;52.394;9.756;2023-06-14T03:03:47;2.07;;;1.40;;
3207;SDS011;1616;52.394;9.756;2023-06-14T03:06:12;1.63;;;1.50;;
3207;SDS011;1616;52.394;9.756;2023-06-14T03:08:41;1.43;;;1.33;;
3207;SDS011;1616;52.394;9.756;2023-06-14T03:11:07;1.60;;;1.50;;
3207;SDS011;1616;52.394;9.756;2023-06-14T03:13:36;2.37;;;1.50;;
3207;SDS011;1616;52.394;9.756;2023-06-14T03:16:02;1.30;;;1.20;;
3207;SDS011;1616;52.394;9.756;2023-06-14T03:18:29;1.83;;;1.50;;
3207;SDS011;1616;52.394;9.756;2023-06-14T03:20:56;1.83;;;1.73;;
3207;SDS011;1616;52.394;9.756;2023-06-14T03:23:23;3.37;;;1.93;;
3207;SDS011;1616;52.394;9.756;2023-06-14T03:25:50;10.10;;;2.03;;
3207;SDS011;1616;52.394;9.756;2023-06-14T03:28:17;2.93;;;1.73;;
3207;SDS011;1616;52.394;9.756;2023-06-14T03:30:42;3.87;;;1.53;;
3207;SDS011;1616;52.394;9.756;2023-06-14T03:33:08;2.60;;;1.80;;
3207;SDS011;1616;52.394;9.756;2023-06-14T03:35:34;1.60;;;1.50;;
3207;SDS011;1616;52.394;9.756;2023-06-14T03:38:00;3.13;;;1.67;;
3207;SDS011;1616;52.394;9.756;2023-06-14T03:40:27;1.70;;;1.60;;
3207;SDS011;1616;52.394;9.756;2023-06-14T03:42:54;2.10;;;1.60;;
3207;SDS011;1616;52.394;9.756;2023-06-14T03:45:20;2.80;;;2.40;;
3207;SDS011;1616;52.394;9.756;2023-06-14T03:47:46;2.93;;;1.53;;
3207;SDS011;1616;52.394;9.756;2023-06-14T03:50:12;8.40;;;1.80;;
3207;SDS011;1616;52.394;9.756;2023-06-14T03:52:38;1.97;;;1.63;;
3207;SDS011;1616;52.394;9.756;2023-06-14T03:55:03;4.83;;;1.73;;
3207;SDS011;1616;52.394;9.756;2023-06-14T03:57:30;2.10;;;1.77;;
3207;SDS011;1616;52.394;9.756;2023-06-14T03:59:56;2.33;;;1.63;;
3207;SDS011;1616;52.394;9.756;2023-06-14T04:02:22;2.03;;;1.50;;
3207;SDS011;1616;52.394;9.756;2023-06-14T04:04:48;1.63;;;1.50;;
3207;SDS011;1616;52.394;9.756;2023-06-14T04:07:14;5.97;;;1.20;;
3207;SDS011;1616;52.394;9.756;2023-06-14T04:09:44;2.43;;;1.33;;
3207;SDS011;1616;52.394;9.756;2023-06-14T04:12:10;1.80;;;1.70;;
3207;SDS011;1616;52.394;9.756;2023-06-14T04:14:39;1.60;;;1.50;;
3207;SDS011;1616;52.394;9.756;2023-06-14T04:17:05;1.53;;;1.43;;
3207;SDS011;1616;52.394;9.756;2023-06-14T04:19:31;3.37;;;1.60;;
3207;SDS011;1616;52.394;9.756;2023-06-14T04:21:57;4.17;;;1.70;;
3207;SDS011;1616;52.394;9.756;2023-06-14T04:24:27;6.53;;;1.70;;
3207;SDS011;1616;52.394;9.756;2023-06-14T04:27:00;1.97;;;1.37;;
3207;SDS011;1616;52.394;9.756;2023-06-14T04:29:26;4.60;;;1.50;;
3207;SDS011;1616;52.394;9.756;2023-06-14T04:31:55;7.17;;;1.80;;
3207;SDS011;1616;52.394;9.756;2023-06-14T04:34:26;1.53;;;1.40;;
3207;SDS011;1616;52.394;9.756;2023-06-14T04:36:55;1.57;;;1.27;;
3207;SDS011;1616;52.394;9.756;2023-06-14T04:39:21;1.83;;;1.50;;
3207;SDS011;1616;52.394;9.756;2023-06-14T04:41:47;3.70;;;2.37;;
3207;SDS011;1616;52.394;9.756;2023-06-14T04:44:18;4.10;;;1.40;;
3207;SDS011;1616;52.394;9.756;2023-06-14T04:46:45;3.47;;;1.40;;
3207;SDS011;1616;52.394;9.756;2023-06-14T04:49:12;2.13;;;1.23;;
3207;SDS011;1616;52.394;9.756;2023-06-14T04:51:39;1.53;;;1.33;;
3207;SDS011;1616;52.394;9.756;2023-06-14T04:54:06;3.70;;;1.50;;
3207;SDS011;1616;52.394;9.756;2023-06-14T04:56:38;1.50;;;1.40;;
3207;SDS011;1616;52.394;9.756;2023-06-14T04:59:03;2.40;;;1.20;;
3207;SDS011;1616;52.394;9.756;2023-06-14T05:01:33;5.13;;;1.30;;
3207;SDS011;1616;52.394;9.756;2023-06-14T05:03:59;2.27;;;1.20;;
3207;SDS011;1616;52.394;9.756;2023-06-14T05:06:25;4.70;;;1.40;;
3207;SDS011;1616;52.394;9.756;2023-06-14T05:08:54;3.40;;;1.30;;
3207;SDS011;1616;52.394;9.756;2023-06-14T05:11:21;1.87;;;1.37;;
3207;SDS011;1616;52.394;9.756;2023-06-14T05:13:49;3.67;;;1.40;;
3207;SDS011;1616;52.394;9.756;2023-06-14T05:16:16;1.67;;;1.33;;
3207;SDS011;1616;52.394;9.756;2023-06-14T05:18:44;1.70;;;1.30;;
3207;SDS011;1616;52.394;9.756;2023-06-14T05:21:12;1.50;;;1.30;;
3207;SDS011;1616;52.394;9.756;2023-06-14T05:23:42;1.30;;;1.20;;
3207;SDS011;1616;52.394;9.756;2023-06-14T05:26:09;2.37;;;1.37;;
3207;SDS011;1616;52.394;9.756;2023-06-14T05:28:35;4.13;;;1.30;;
3207;SDS011;1616;52.394;9.756;2023-06-14T05:31:01;3.40;;;1.30;;
3207;SDS011;1616;52.394;9.756;2023-06-14T05:33:27;2.60;;;1.20;;
3207;SDS011;1616;52.394;9.756;2023-06-14T05:35:53;2.93;;;1.50;;
3207;SDS011;1616;52.394;9.756;2023-06-14T05:38:19;4.63;;;1.20;;
3207;SDS011;1616;52.394;9.756;2023-06-14T05:40:44;2.37;;;1.10;;
3207;SDS011;1616;52.394;9.756;2023-06-14T05:43:10;3.73;;;1.10;;
3207;SDS011;1616;52.394;9.756;2023-06-14T05:45:36;1.50;;;1.10;;
3207;SDS011;1616;52.394;9.756;2023-06-14T05:48:02;8.00;;;1.43;;
3207;SDS011;1616;52.394;9.756;2023-06-14T05:50:27;3.87;;;1.10;;
3207;SDS011;1616;52.394;9.756;2023-06-14T05:52:53;2.07;;;1.10;;
3207;SDS011;1616;52.394;9.756;2023-06-14T05:55:19;1.60;;;1.50;;
3207;SDS011;1616;52.394;9.756;2023-06-14T05:57:45;1.23;;;1.10;;
3207;SDS011;1616;52.394;9.756;2023-06-14T06:00:13;1.33;;;1.10;;
3207;SDS011;1616;52.394;9.756;2023-06-14T06:02:41;7.43;;;1.20;;
3207;SDS011;1616;52.394;9.756;2023-06-14T06:05:09;14.60;;;1.57;;
3207;SDS011;1616;52.394;9.756;2023-06-14T06:07:36;4.03;;;1.30;;
3207;SDS011;1616;52.394;9.756;2023-06-14T06:10:03;4.80;;;2.23;;
3207;SDS011;1616;52.394;9.756;2023-06-14T06:12:30;2.50;;;1.40;;
3207;SDS011;1616;52.394;9.756;2023-06-14T06:14:56;2.53;;;1.30;;
3207;SDS011;1616;52.394;9.756;2023-06-14T06:17:22;4.50;;;1.10;;
3207;SDS011;1616;52.394;9.756;2023-06-14T06:19:47;13.50;;;1.50;;
3207;SDS011;1616;52.394;9.756;2023-06-14T06:22:14;5.73;;;1.30;;
3207;SDS011;1616;52.394;9.756;2023-06-14T06:24:40;2.10;;;1.40;;
3207;SDS011;1616;52.394;9.756;2023-06-14T06:27:05;6.80;;;1.30;;
3207;SDS011;1616;52.394;9.756;2023-06-14T06:29:33;4.93;;;1.20;;
3207;SDS011;1616;52.394;9.756;2023-06-14T06:32:00;1.97;;;1.20;;
3207;SDS011;1616;52.394;9.756;2023-06-14T06:34:26;2.90;;;1.30;;
3207;SDS011;1616;52.394;9.756;2023-06-14T06:36:53;3.57;;;1.20;;
3207;SDS011;1616;52.394;9.756;2023-06-14T06:39:19;1.47;;;1.27;;
3207;SDS011;1616;52.394;9.756;2023-06-14T06:41:44;1.67;;;1.13;;
3207;SDS011;1616;52.394;9.756;2023-06-14T06:44:10;4.00;;;1.13;;
3207;SDS011;1616;52.394;9.756;2023-06-14T06:46:36;1.40;;;1.30;;
3207;SDS011;1616;52.394;9.756;2023-06-14T06:49:06;2.03;;;1.23;;
3207;SDS011;1616;52.394;9.756;2023-06-14T06:51:34;2.63;;;1.13;;
3207;SDS011;1616;52.394;9.756;2023-06-14T06:54:03;2.10;;;1.20;;
3207;SDS011;1616;52.394;9.756;2023-06-14T06:56:29;1.73;;;1.40;;
3207;SDS011;1616;52.394;9.756;2023-06-14T06:58:54;1.30;;;1.20;;
3207;SDS011;1616;52.394;9.756;2023-06-14T07:01:20;2.43;;;1.30;;
3207;SDS011;1616;52.394;9.756;2023-06-14T07:03:46;1.10;;;0.90;;
3207;SDS011;1616;52.394;9.756;2023-06-14T07:06:12;2.37;;;1.13;;
3207;SDS011;1616;52.394;9.756;2023-06-14T07:08:37;3.70;;;1.10;;
3207;SDS011;1616;52.394;9.756;2023-06-14T07:11:03;2.50;;;1.40;;
3207;SDS011;1616;52.394;9.756;2023-06-14T07:13:30;1.40;;;1.30;;
3207;SDS011;1616;52.394;9.756;2023-06-14T07:15:57;2.23;;;1.27;;
3207;SDS011;1616;52.394;9.756;2023-06-14T07:18:24;1.30;;;1.10;;
3207;SDS011;1616;52.394;9.756;2023-06-14T07:20:50;6.13;;;1.20;;
3207;SDS011;1616;52.394;9.756;2023-06-14T07:23:17;2.23;;;1.10;;
3207;SDS011;1616;52.394;9.756;2023-06-14T07:25:43;1.30;;;1.20;;
3207;SDS011;1616;52.394;9.756;2023-06-14T07:28:09;4.40;;;1.17;;
3207;SDS011;1616;52.394;9.756;2023-06-14T07:30:35;1.13;;;1.03;;
3207;SDS011;1616;52.394;9.756;2023-06-14T07:33:00;1.30;;;1.10;;
3207;SDS011;1616;52.394;9.756;2023-06-14T07:35:26;2.90;;;1.10;;
3207;SDS011;1616;52.394;9.756;2023-06-14T07:37:52;2.80;;;1.13;;
3207;SDS011;1616;52.394;9.756;2023-06-14T07:40:18;1.17;;;1.07;;
3207;SDS011;1616;52.394;9.756;2023-06-14T07:42:44;5.43;;;1.30;;
3207;SDS011;1616;52.394;9.756;2023-06-14T07:45:12;2.30;;;1.10;;
3207;SDS011;1616;52.394;9.756;2023-06-14T07:47:40;2.07;;;0.93;;
3207;SDS011;1616;52.394;9.756;2023-06-14T07:50:06;1.30;;;1.20;;
3207;SDS011;1616;52.394;9.756;2023-06-14T07:52:32;2.87;;;1.20;;
3207;SDS011;1616;52.394;9.756;2023-06-14T07:54:57;2.20;;;1.20;;
3207;SDS011;1616;52.394;9.756;2023-06-14T07:57:23;2.10;;;1.00;;
3207;SDS011;1616;52.394;9.756;2023-06-14T07:59:49;1.20;;;1.10;;
3207;SDS011;1616;52.394;9.756;2023-06-14T08:02:16;1.60;;;1.20;;
3207;SDS011;1616;52.394;9.756;2023-06-14T08:04:41;2.20;;;1.20;;
3207;SDS011;1616;52.394;9.756;2023-06-14T08:07:07;1.27;;;1.17;;
3207;SDS011;1616;52.394;9.756;2023-06-14T08:09:34;3.33;;;1.10;;
3207;SDS011;1616;52.394;9.756;2023-06-14T08:12:06;1.10;;;1.00;;
3207;SDS011;1616;52.394;9.756;2023-06-14T08:14:34;1.23;;;1.10;;
3207;SDS011;1616;52.394;9.756;2023-06-14T08:17:00;1.40;;;1.00;;
3207;SDS011;1616;52.394;9.756;2023-06-14T08:19:26;1.30;;;1.20;;
3207;SDS011;1616;52.394;9.756;2023-06-14T08:21:53;2.50;;;1.30;;
3207;SDS011;1616;52.394;9.756;2023-06-14T08:24:23;2.27;;;1.10;;
3207;SDS011;1616;52.394;9.756;2023-06-14T08:26:52;1.07;;;0.97;;
3207;SDS011;1616;52.394;9.756;2023-06-14T08:29:18;1.20;;;1.10;;
3207;SDS011;1616;52.394;9.756;2023-06-14T08:31:44;3.27;;;1.27;;
3207;SDS011;1616;52.394;9.756;2023-06-14T08:34:11;2.17;;;1.13;;
3207;SDS011;1616;52.394;9.756;2023-06-14T08:36:37;1.13;;;1.00;;
3207;SDS011;1616;52.394;9.756;2023-06-14T08:39:02;2.33;;;1.30;;
3207;SDS011;1616;52.394;9.756;2023-06-14T08:41:28;1.40;;;1.20;;
3207;SDS011;1616;52.394;9.756;2023-06-14T08:43:55;4.40;;;1.07;;
3207;SDS011;1616;52.394;9.756;2023-06-14T08:46:21;2.90;;;1.10;;
3207;SDS011;1616;52.394;9.756;2023-06-14T08:48:50;1.83;;;1.30;;
3207;SDS011;1616;52.394;9.756;2023-06-14T08:51:20;1.20;;;1.10;;
3207;SDS011;1616;52.394;9.756;2023-06-14T08:53:50;1.30;;;1.10;;
3207;SDS011;1616;52.394;9.756;2023-06-14T08:56:24;2.53;;;1.20;;
3207;SDS011;1616;52.394;9.756;2023-06-14T08:58:52;1.40;;;1.23;;
3207;SDS011;1616;52.394;9.756;2023-06-14T09:01:19;1.30;;;1.20;;
3207;SDS011;1616;52.394;9.756;2023-06-14T09:03:47;8.53;;;1.40;;
3207;SDS011;1616;52.394;9.756;2023-06-14T09:06:13;1.20;;;1.07;;
3207;SDS011;1616;52.394;9.756;2023-06-14T09:08:41;1.10;;;1.00;;
3207;SDS011;1616;52.394;9.756;2023-06-14T09:11:13;3.20;;;1.10;;
3207;SDS011;1616;52.394;9.756;2023-06-14T09:13:40;1.10;;;1.00;;
3207;SDS011;1616;52.394;9.756;2023-06-14T09:16:07;1.10;;;1.00;;
3207;SDS011;1616;52.394;9.756;2023-06-14T09:18:36;1.07;;;0.90;;
3207;SDS011;1616;52.394;9.756;2023-06-14T09:21:06;1.77;;;1.03;;
3207;SDS011;1616;52.394;9.756;2023-06-14T09:23:39;1.37;;;1.00;;
3207;SDS011;1616;52.394;9.756;2023-06-14T09:26:09;1.73;;;1.20;;
3207;SDS011;1616;52.394;9.756;2023-06-14T09:28:36;1.30;;;1.00;;
3207;SDS011;1616;52.394;9.756;2023-06-14T09:31:05;1.10;;;1.00;;
3207;SDS011;1616;52.394;9.756;2023-06-14T09:33:33;1.30;;;1.20;;
3207;SDS011;1616;52.394;9.756;2023-06-14T09:35:59;3.10;;;1.20;;
3207;SDS011;1616;52.394;9.756;2023-06-14T09:38:25;1.30;;;1.20;;
3207;SDS011;1616;52.394;9.756;2023-06-14T09:40:51;1.37;;;1.27;;
3207;SDS011;1616;52.394;9.756;2023-06-14T09:43:17;2.23;;;1.40;;
3207;SDS011;1616;52.394;9.756;2023-06-14T09:45:45;1.13;;;1.03;;
3207;SDS011;1616;52.394;9.756;2023-06-14T09:48:12;2.50;;;1.30;;
3207;SDS011;1616;52.394;9.756;2023-06-14T09:50:45;3.00;;;1.20;;
3207;SDS011;1616;52.394;9.756;2023-06-14T09:53:13;1.20;;;1.10;;
3207;SDS011;1616;52.394;9.756;2023-06-14T09:55:40;1.23;;;1.10;;
3207;SDS011;1616;52.394;9.756;2023-06-14T09:58:07;1.07;;;0.97;;
3207;SDS011;1616;52.394;9.756;2023-06-14T10:00:35;5.63;;;1.20;;
3207;SDS011;1616;52.394;9.756;2023-06-14T10:03:44;1.10;;;1.00;;
3207;SDS011;1616;52.394;9.756;2023-06-14T10:05:53;1.20;;;1.10;;
3207;SDS011;1616;52.394;9.756;2023-06-14T10:08:26;5.83;;;1.23;;
3207;SDS011;1616;52.394;9.756;2023-06-14T10:10:55;1.20;;;1.10;;
3207;SDS011;1616;52.394;9.756;2023-06-14T10:13:22;2.20;;;1.10;;
3207;SDS011;1616;52.394;9.756;2023-06-14T10:15:52;3.70;;;1.27;;
3207;SDS011;1616;52.394;9.756;2023-06-14T10:18:42;1.40;;;1.30;;
3207;SDS011;1616;52.394;9.756;2023-06-14T10:21:26;2.17;;;1.10;;
3207;SDS011;1616;52.394;9.756;2023-06-14T10:24:03;6.17;;;1.20;;
3207;SDS011;1616;52.394;9.756;2023-06-14T10:26:32;2.03;;;1.10;;
3207;SDS011;1616;52.394;9.756;2023-06-14T10:28:58;2.17;;;1.10;;
3207;SDS011;1616;52.394;9.756;2023-06-14T10:31:43;1.73;;;1.40;;
3207;SDS011;1616;52.394;9.756;2023-06-14T10:34:12;2.23;;;1.13;;
3207;SDS011;1616;52.394;9.756;2023-06-14T10:37:06;1.50;;;1.13;;
3207;SDS011;1616;52.394;9.756;2023-06-14T10:39:39;2.40;;;1.30;;
3207;SDS011;1616;52.394;9.756;2023-06-14T10:42:06;1.80;;;1.50;;
3207;SDS011;1616;52.394;9.756;2023-06-14T10:44:33;1.50;;;1.40;;
3207;SDS011;1616;52.394;9.756;2023-06-14T10:50:04;2.70;;;1.60;;
3207;SDS011;1616;52.394;9.756;2023-06-14T10:52:35;2.10;;;1.50;;
3207;SDS011;1616;52.394;9.756;2023-06-14T10:57:32;1.40;;;1.30;;
3207;SDS011;1616;52.394;9.756;2023-06-14T11:00:02;4.00;;;1.40;;
3207;SDS011;1616;52.394;9.756;2023-06-14T11:05:25;2.13;;;1.33;;
3207;SDS011;1616;52.394;9.756;2023-06-14T11:07:58;3.20;;;1.60;;
3207;SDS011;1616;52.394;9.756;2023-06-14T11:10:48;1.43;;;1.33;;
3207;SDS011;1616;52.394;9.756;2023-06-14T11:13:18;1.70;;;1.60;;
3207;SDS011;1616;52.394;9.756;2023-06-14T11:15:45;1.73;;;1.63;;
3207;SDS011;1616;52.394;9.756;2023-06-14T11:18:17;4.90;;;1.40;;
3207;SDS011;1616;52.394;9.756;2023-06-14T11:20:45;2.70;;;1.50;;
3207;SDS011;1616;52.394;9.756;2023-06-14T11:23:11;2.10;;;1.60;;
3207;SDS011;1616;52.394;9.756;2023-06-14T11:25:37;1.80;;;1.70;;
3207;SDS011;1616;52.394;9.756;2023-06-14T11:28:03;1.87;;;1.47;;
3207;SDS011;1616;52.394;9.756;2023-06-14T11:30:28;1.60;;;1.50;;
3207;SDS011;1616;52.394;9.756;2023-06-14T11:32:55;1.60;;;1.50;;
3207;SDS011;1616;52.394;9.756;2023-06-14T11:35:22;3.57;;;1.47;;
3207;SDS011;1616;52.394;9.756;2023-06-14T11:37:48;3.33;;;1.40;;
3207;SDS011;1616;52.394;9.756;2023-06-14T11:40:18;6.10;;;1.60;;
3207;SDS011;1616;52.394;9.756;2023-06-14T11:42:43;8.23;;;1.50;;
3207;SDS011;1616;52.394;9.756;2023-06-14T11:45:10;2.03;;;1.50;;
3207;SDS011;1616;52.394;9.756;2023-06-14T11:47:37;1.97;;;1.67;;
3207;SDS011;1616;52.394;9.756;2023-06-14T11:50:05;2.13;;;1.40;;
3207;SDS011;1616;52.394;9.756;2023-06-14T11:52:33;1.60;;;1.50;;
3207;SDS011;1616;52.394;9.756;2023-06-14T11:54:59;1.50;;;1.40;;
3207;SDS011;1616;52.394;9.756;2023-06-14T11:57:29;4.23;;;1.70;;
3207;SDS011;1616;52.394;9.756;2023-06-14T11:59:55;2.27;;;1.90;;
3207;SDS011;1616;52.394;9.756;2023-06-14T12:02:21;4.50;;;1.73;;
3207;SDS011;1616;52.394;9.756;2023-06-14T12:04:47;4.10;;;1.80;;
3207;SDS011;1616;52.394;9.756;2023-06-14T12:07:14;1.80;;;1.70;;
3207;SDS011;1616;52.394;9.756;2023-06-14T12:09:42;2.83;;;1.67;;
3207;SDS011;1616;52.394;9.756;2023-06-14T12:12:28;1.80;;;1.57;;
3207;SDS011;1616;52.394;9.756;2023-06-14T12:14:56;2.40;;;2.00;;
3207;SDS011;1616;52.394;9.756;2023-06-14T12:17:22;2.93;;;1.80;;
3207;SDS011;1616;52.394;9.756;2023-06-14T12:19:48;3.93;;;1.67;;
3207;SDS011;1616;52.394;9.756;2023-06-14T12:22:15;2.03;;;1.83;;
3207;SDS011;1616;52.394;9.756;2023-06-14T12:24:45;2.70;;;1.43;;
3207;SDS011;1616;52.394;9.756;2023-06-14T12:27:11;10.47;;;1.57;;
3207;SDS011;1616;52.394;9.756;2023-06-14T12:29:41;2.30;;;1.50;;
3207;SDS011;1616;52.394;9.756;2023-06-14T12:32:11;1.97;;;1.60;;
3207;SDS011;1616;52.394;9.756;2023-06-14T12:34:37;2.23;;;1.90;;
3207;SDS011;1616;52.394;9.756;2023-06-14T12:37:02;3.43;;;1.80;;
3207;SDS011;1616;52.394;9.756;2023-06-14T12:39:29;1.90;;;1.80;;
3207;SDS011;1616;52.394;9.756;2023-06-14T12:41:56;5.60;;;1.90;;
3207;SDS011;1616;52.394;9.756;2023-06-14T12:44:23;2.63;;;1.60;;
3207;SDS011;1616;52.394;9.756;2023-06-14T12:46:49;1.97;;;1.70;;
3207;SDS011;1616;52.394;9.756;2023-06-14T12:49:16;2.80;;;1.90;;
3207;SDS011;1616;52.394;9.756;2023-06-14T12:51:42;2.90;;;1.67;;
3207;SDS011;1616;52.394;9.756;2023-06-14T12:54:08;2.27;;;2.17;;
3207;SDS011;1616;52.394;9.756;2023-06-14T12:56:34;7.00;;;1.83;;
3207;SDS011;1616;52.394;9.756;2023-06-14T12:59:00;4.37;;;1.90;;
3207;SDS011;1616;52.394;9.756;2023-06-14T13:01:26;1.93;;;1.70;;
3207;SDS011;1616;52.394;9.756;2023-06-14T13:03:51;9.83;;;1.87;;
3207;SDS011;1616;52.394;9.756;2023-06-14T13:06:21;1.80;;;1.50;;
3207;SDS011;1616;52.394;9.756;2023-06-14T13:08:50;4.13;;;1.50;;
3207;SDS011;1616;52.394;9.756;2023-06-14T13:11:16;2.30;;;1.80;;
3207;SDS011;1616;52.394;9.756;2023-06-14T13:13:42;2.80;;;1.80;;
3207;SDS011;1616;52.394;9.756;2023-06-14T13:16:08;2.40;;;1.80;;
3207;SDS011;1616;52.394;9.756;2023-06-14T13:18:34;2.10;;;1.90;;
3207;SDS011;1616;52.394;9.756;2023-06-14T13:21:00;6.57;;;2.10;;
3207;SDS011;1616;52.394;9.756;2023-06-14T13:23:26;5.13;;;1.90;;
3207;SDS011;1616;52.394;9.756;2023-06-14T13:25:52;4.43;;;2.23;;
3207;SDS011;1616;52.394;9.756;2023-06-14T13:28:18;3.80;;;2.10;;
3207;SDS011;1616;52.394;9.756;2023-06-14T13:30:44;4.40;;;2.80;;
3207;SDS011;1616;52.394;9.756;2023-06-14T13:33:10;2.10;;;1.73;;
3207;SDS011;1616;52.394;9.756;2023-06-14T13:35:36;3.10;;;1.70;;
3207;SDS011;1616;52.394;9.756;2023-06-14T13:38:02;2.67;;;2.00;;
3207;SDS011;1616;52.394;9.756;2023-06-14T13:40:27;2.13;;;1.83;;
3207;SDS011;1616;52.394;9.756;2023-06-14T13:42:53;4.17;;;2.10;;
3207;SDS011;1616;52.394;9.756;2023-06-14T13:45:19;6.30;;;1.70;;
3207;SDS011;1616;52.394;9.756;2023-06-14T13:47:45;2.37;;;1.80;;
3207;SDS011;1616;52.394;9.756;2023-06-14T13:50:13;2.73;;;2.07;;
3207;SDS011;1616;52.394;9.756;2023-06-14T13:52:39;5.80;;;1.90;;
3207;SDS011;1616;52.394;9.756;2023-06-14T13:55:05;3.37;;;2.00;;
3207;SDS011;1616;52.394;9.756;2023-06-14T13:57:31;4.30;;;2.30;;
3207;SDS011;1616;52.394;9.756;2023-06-14T13:59:57;2.20;;;2.00;;
3207;SDS011;1616;52.394;9.756;2023-06-14T14:02:26;2.47;;;1.70;;
3207;SDS011;1616;52.394;9.756;2023-06-14T14:04:54;2.10;;;1.83;;
3207;SDS011;1616;52.394;9.756;2023-06-14T14:07:20;6.33;;;2.10;;
3207;SDS011;1616;52.394;9.756;2023-06-14T14:09:47;3.80;;;2.00;;
3207;SDS011;1616;52.394;9.756;2023-06-14T14:12:13;4.33;;;2.40;;
3207;SDS011;1616;52.394;9.756;2023-06-14T14:14:39;4.67;;;2.50;;
3207;SDS011;1616;52.394;9.756;2023-06-14T14:17:05;5.50;;;2.00;;
3207;SDS011;1616;52.394;9.756;2023-06-14T14:19:32;4.03;;;1.97;;
3207;SDS011;1616;52.394;9.756;2023-06-14T14:21:59;6.17;;;2.43;;
3207;SDS011;1616;52.394;9.756;2023-06-14T14:24:24;2.90;;;2.70;;
3207;SDS011;1616;52.394;9.756;2023-06-14T14:26:51;6.10;;;2.00;;
3207;SDS011;1616;52.394;9.756;2023-06-14T14:29:18;4.40;;;2.00;;
3207;SDS011;1616;52.394;9.756;2023-06-14T14:31:45;4.20;;;2.10;;
3207;SDS011;1616;52.394;9.756;2023-06-14T14:34:10;6.37;;;2.60;;
3207;SDS011;1616;52.394;9.756;2023-06-14T14:36:37;4.13;;;2.00;;
3207;SDS011;1616;52.394;9.756;2023-06-14T14:39:05;5.70;;;1.90;;
3207;SDS011;1616;52.394;9.756;2023-06-14T14:41:32;3.53;;;2.07;;
3207;SDS011;1616;52.394;9.756;2023-06-14T14:43:57;2.17;;;2.07;;
3207;SDS011;1616;52.394;9.756;2023-06-14T14:46:25;5.77;;;2.27;;
3207;SDS011;1616;52.394;9.756;2023-06-14T14:48:52;2.53;;;1.93;;
3207;SDS011;1616;52.394;9.756;2023-06-14T14:51:17;2.20;;;2.00;;
3207;SDS011;1616;52.394;9.756;2023-06-14T14:53:43;2.33;;;2.13;;
3207;SDS011;1616;52.394;9.756;2023-06-14T14:56:09;2.83;;;2.00;;
3207;SDS011;1616;52.394;9.756;2023-06-14T14:58:35;4.70;;;2.20;;
3207;SDS011;1616;52.394;9.756;2023-06-14T15:01:00;3.47;;;2.17;;
3207;SDS011;1616;52.394;9.756;2023-06-14T15:03:26;2.90;;;1.93;;
3207;SDS011;1616;52.394;9.756;2023-06-14T15:05:52;4.83;;;2.27;;
3207;SDS011;1616;52.394;9.756;2023-06-14T15:08:18;4.27;;;2.50;;
3207;SDS011;1616;52.394;9.756;2023-06-14T15:10:43;2.53;;;2.20;;
3207;SDS011;1616;52.394;9.756;2023-06-14T15:13:10;2.30;;;2.10;;
3207;SDS011;1616;52.394;9.756;2023-06-14T15:15:36;4.47;;;2.23;;
3207;SDS011;1616;52.394;9.756;2023-06-14T15:18:02;6.27;;;2.37;;
3207;SDS011;1616;52.394;9.756;2023-06-14T15:20:28;5.43;;;2.50;;
3207;SDS011;1616;52.394;9.756;2023-06-14T15:22:54;2.00;;;1.80;;
3207;SDS011;1616;52.394;9.756;2023-06-14T15:25:26;1.80;;;1.60;;
3207;SDS011;1616;52.394;9.756;2023-06-14T15:27:52;4.57;;;2.20;;
3207;SDS011;1616;52.394;9.756;2023-06-14T15:30:18;3.80;;;1.80;;
3207;SDS011;1616;52.394;9.756;2023-06-14T15:32:44;2.30;;;1.93;;